sensor_id;sensor_type;location;lat;lon;timestamp;P1;durP1;ratioP1;P2;durP2;ratioP2
62457;SDS011;48509;52.122;5.250;2023-11-18T00:02:55;74.11;;;47.8;;
62457;SDS011;48509;52.122;5.250;2023-11-18T00:04:31;69.5;;;46.2;;
62457;SDS011;48509;52.122;5.250;2023-11-18T00:06:07;77.11;;;50.0;;
62457;SDS011;48509;52.122;5.250;2023-11-18T00:09:20;74.41;;;49.2;;
62457;SDS011;48509;52.122;5.250;2023-11-18T00:10:56;71.7;;;44.7;;
62457;SDS011;48509;52.122;5.250;2023-11-18T00:12:32;72.61;;;47.3;;
62457;SDS011;48509;52.122;5.250;2023-11-18T00:14:08;81.3;;;50.3;;
62457;SDS011;48509;52.122;5.250;2023-11-18T00:17:20;74.5;;;48.0;;
62457;SDS011;48509;52.122;5.250;2023-11-18T00:18:56;71.0;;;45.8;;
62457;SDS011;48509;52.122;5.250;2023-11-18T00:20:32;68.3;;;43.1;;
62457;SDS011;48509;52.122;5.250;2023-11-18T00:23:45;62.5;;;43.5;;
62457;SDS011;48509;52.122;5.250;2023-11-18T00:25:21;71.41;;;46.3;;
62457;SDS011;48509;52.122;5.250;2023-11-18T00:26:57;71.8;;;45.9;;
62457;SDS011;48509;52.122;5.250;2023-11-18T00:30:09;71.8;;;45.9;;
62457;SDS011;48509;52.122;5.250;2023-11-18T00:31:46;78.5;;;47.5;;
62457;SDS011;48509;52.122;5.250;2023-11-18T00:33:22;63.3;;;44.6;;
62457;SDS011;48509;52.122;5.250;2023-11-18T00:34:59;69.3;;;47.1;;
62457;SDS011;48509;52.122;5.250;2023-11-18T00:38:11;65.6;;;44.5;;
62457;SDS011;48509;52.122;5.250;2023-11-18T00:39:47;72.5;;;46.9;;
62457;SDS011;48509;52.122;5.250;2023-11-18T00:41:23;65.1;;;42.8;;
62457;SDS011;48509;52.122;5.250;2023-11-18T00:44:35;55.7;;;38.0;;
62457;SDS011;48509;52.122;5.250;2023-11-18T00:46:11;62.3;;;40.21;;
62457;SDS011;48509;52.122;5.250;2023-11-18T00:47:47;60.1;;;39.5;;
62457;SDS011;48509;52.122;5.250;2023-11-18T00:51:00;69.5;;;43.3;;
62457;SDS011;48509;52.122;5.250;2023-11-18T00:52:36;65.6;;;44.2;;
62457;SDS011;48509;52.122;5.250;2023-11-18T00:54:12;66.91;;;45.1;;
62457;SDS011;48509;52.122;5.250;2023-11-18T00:57:24;66.2;;;44.2;;
62457;SDS011;48509;52.122;5.250;2023-11-18T00:59:00;65.3;;;44.1;;
62457;SDS011;48509;52.122;5.250;2023-11-18T01:00:36;72.8;;;47.0;;
62457;SDS011;48509;52.122;5.250;2023-11-18T01:02:12;61.3;;;42.1;;
62457;SDS011;48509;52.122;5.250;2023-11-18T01:05:25;62.0;;;41.3;;
62457;SDS011;48509;52.122;5.250;2023-11-18T01:07:01;74.91;;;47.8;;
62457;SDS011;48509;52.122;5.250;2023-11-18T01:08:37;68.2;;;46.2;;
62457;SDS011;48509;52.122;5.250;2023-11-18T01:11:49;75.7;;;47.3;;
62457;SDS011;48509;52.122;5.250;2023-11-18T01:13:25;64.2;;;42.8;;
62457;SDS011;48509;52.122;5.250;2023-11-18T01:15:01;61.1;;;42.8;;
62457;SDS011;48509;52.122;5.250;2023-11-18T01:18:15;63.5;;;42.6;;
62457;SDS011;48509;52.122;5.250;2023-11-18T01:19:51;59.8;;;40.1;;
62457;SDS011;48509;52.122;5.250;2023-11-18T01:21:27;63.5;;;43.7;;
62457;SDS011;48509;52.122;5.250;2023-11-18T01:24:39;60.4;;;42.0;;
62457;SDS011;48509;52.122;5.250;2023-11-18T01:26:16;50.4;;;37.6;;
62457;SDS011;48509;52.122;5.250;2023-11-18T01:27:52;64.6;;;43.1;;
62457;SDS011;48509;52.122;5.250;2023-11-18T01:29:28;47.8;;;35.81;;
62457;SDS011;48509;52.122;5.250;2023-11-18T01:32:41;64.91;;;44.8;;
62457;SDS011;48509;52.122;5.250;2023-11-18T01:34:17;51.9;;;38.0;;
62457;SDS011;48509;52.122;5.250;2023-11-18T01:35:53;59.8;;;40.9;;
62457;SDS011;48509;52.122;5.250;2023-11-18T01:39:05;60.2;;;41.0;;
62457;SDS011;48509;52.122;5.250;2023-11-18T01:40:41;58.4;;;40.5;;
62457;SDS011;48509;52.122;5.250;2023-11-18T01:42:17;58.5;;;40.6;;
62457;SDS011;48509;52.122;5.250;2023-11-18T01:45:30;63.7;;;42.8;;
62457;SDS011;48509;52.122;5.250;2023-11-18T01:47:06;59.0;;;41.4;;
62457;SDS011;48509;52.122;5.250;2023-11-18T01:48:43;61.1;;;40.9;;
62457;SDS011;48509;52.122;5.250;2023-11-18T01:50:19;64.8;;;44.1;;
62457;SDS011;48509;52.122;5.250;2023-11-18T01:53:31;69.5;;;46.5;;
62457;SDS011;48509;52.122;5.250;2023-11-18T01:55:09;62.3;;;42.8;;
62457;SDS011;48509;52.122;5.250;2023-11-18T01:56:46;59.5;;;40.0;;
62457;SDS011;48509;52.122;5.250;2023-11-18T02:00:00;60.1;;;41.6;;
62457;SDS011;48509;52.122;5.250;2023-11-18T02:01:37;52.7;;;37.71;;
62457;SDS011;48509;52.122;5.250;2023-11-18T02:03:14;61.2;;;39.4;;
62457;SDS011;48509;52.122;5.250;2023-11-18T02:06:26;61.2;;;39.4;;
62457;SDS011;48509;52.122;5.250;2023-11-18T02:08:04;57.6;;;40.31;;
62457;SDS011;48509;52.122;5.250;2023-11-18T02:09:41;60.6;;;41.4;;
62457;SDS011;48509;52.122;5.250;2023-11-18T02:11:20;62.2;;;41.1;;
62457;SDS011;48509;52.122;5.250;2023-11-18T02:14:49;61.2;;;40.6;;
62457;SDS011;48509;52.122;5.250;2023-11-18T02:16:27;55.1;;;37.9;;
62457;SDS011;48509;52.122;5.250;2023-11-18T02:18:04;55.9;;;37.21;;
62457;SDS011;48509;52.122;5.250;2023-11-18T02:19:42;47.2;;;34.1;;
62457;SDS011;48509;52.122;5.250;2023-11-18T02:22:56;66.5;;;42.9;;
62457;SDS011;48509;52.122;5.250;2023-11-18T02:24:33;59.4;;;39.81;;
62457;SDS011;48509;52.122;5.250;2023-11-18T02:26:09;47.9;;;36.1;;
62457;SDS011;48509;52.122;5.250;2023-11-18T02:29:22;60.5;;;40.71;;
62457;SDS011;48509;52.122;5.250;2023-11-18T02:32:53;52.3;;;36.1;;
62457;SDS011;48509;52.122;5.250;2023-11-18T02:34:34;54.5;;;38.71;;
62457;SDS011;48509;52.122;5.250;2023-11-18T02:38:04;52.0;;;35.5;;
62457;SDS011;48509;52.122;5.250;2023-11-18T02:39:42;57.6;;;37.81;;
62457;SDS011;48509;52.122;5.250;2023-11-18T02:41:21;51.9;;;36.6;;
62457;SDS011;48509;52.122;5.250;2023-11-18T02:42:58;61.2;;;42.3;;
62457;SDS011;48509;52.122;5.250;2023-11-18T02:46:13;58.7;;;40.9;;
62457;SDS011;48509;52.122;5.250;2023-11-18T02:47:49;58.5;;;39.5;;
62457;SDS011;48509;52.122;5.250;2023-11-18T02:49:25;56.1;;;40.71;;
62457;SDS011;48509;52.122;5.250;2023-11-18T02:51:01;51.9;;;36.31;;
62457;SDS011;48509;52.122;5.250;2023-11-18T02:54:14;57.7;;;40.9;;
62457;SDS011;48509;52.122;5.250;2023-11-18T02:55:50;64.1;;;44.0;;
62457;SDS011;48509;52.122;5.250;2023-11-18T02:57:26;51.3;;;38.0;;
62457;SDS011;48509;52.122;5.250;2023-11-18T03:00:38;51.0;;;36.5;;
62457;SDS011;48509;52.122;5.250;2023-11-18T03:02:14;65.8;;;44.4;;
62457;SDS011;48509;52.122;5.250;2023-11-18T03:03:50;46.1;;;33.4;;
62457;SDS011;48509;52.122;5.250;2023-11-18T03:07:02;58.7;;;41.6;;
62457;SDS011;48509;52.122;5.250;2023-11-18T03:08:38;68.41;;;43.8;;
62457;SDS011;48509;52.122;5.250;2023-11-18T03:10:15;61.9;;;42.0;;
62457;SDS011;48509;52.122;5.250;2023-11-18T03:13:27;57.2;;;39.21;;
62457;SDS011;48509;52.122;5.250;2023-11-18T03:15:04;59.3;;;42.7;;
62457;SDS011;48509;52.122;5.250;2023-11-18T03:16:40;57.4;;;40.6;;
62457;SDS011;48509;52.122;5.250;2023-11-18T03:18:16;62.2;;;42.9;;
62457;SDS011;48509;52.122;5.250;2023-11-18T03:21:28;62.3;;;41.7;;
62457;SDS011;48509;52.122;5.250;2023-11-18T03:23:04;59.4;;;40.1;;
62457;SDS011;48509;52.122;5.250;2023-11-18T03:24:41;57.1;;;41.8;;
62457;SDS011;48509;52.122;5.250;2023-11-18T03:27:53;50.9;;;35.1;;
62457;SDS011;48509;52.122;5.250;2023-11-18T03:29:29;79.0;;;49.3;;
62457;SDS011;48509;52.122;5.250;2023-11-18T03:31:05;62.6;;;44.9;;
62457;SDS011;48509;52.122;5.250;2023-11-18T03:34:19;55.2;;;38.31;;
62457;SDS011;48509;52.122;5.250;2023-11-18T03:35:55;66.2;;;46.1;;
62457;SDS011;48509;52.122;5.250;2023-11-18T03:37:31;62.3;;;40.31;;
62457;SDS011;48509;52.122;5.250;2023-11-18T03:39:08;61.0;;;41.3;;
62457;SDS011;48509;52.122;5.250;2023-11-18T03:42:21;71.8;;;45.9;;
62457;SDS011;48509;52.122;5.250;2023-11-18T03:43:57;63.1;;;43.8;;
62457;SDS011;48509;52.122;5.250;2023-11-18T03:45:33;60.5;;;40.81;;
62457;SDS011;48509;52.122;5.250;2023-11-18T03:48:45;68.2;;;46.4;;
62457;SDS011;48509;52.122;5.250;2023-11-18T03:50:21;67.2;;;46.9;;
62457;SDS011;48509;52.122;5.250;2023-11-18T03:51:57;69.3;;;47.2;;
62457;SDS011;48509;52.122;5.250;2023-11-18T03:55:10;58.1;;;40.4;;
62457;SDS011;48509;52.122;5.250;2023-11-18T03:56:47;64.3;;;44.6;;
62457;SDS011;48509;52.122;5.250;2023-11-18T03:58:23;57.1;;;40.5;;
62457;SDS011;48509;52.122;5.250;2023-11-18T04:01:35;55.0;;;37.9;;
62457;SDS011;48509;52.122;5.250;2023-11-18T04:03:11;60.6;;;43.8;;
62457;SDS011;48509;52.122;5.250;2023-11-18T04:04:47;71.91;;;47.4;;
62457;SDS011;48509;52.122;5.250;2023-11-18T04:06:23;65.7;;;45.4;;
62457;SDS011;48509;52.122;5.250;2023-11-18T04:09:35;62.9;;;43.3;;
62457;SDS011;48509;52.122;5.250;2023-11-18T04:11:12;63.7;;;43.6;;
62457;SDS011;48509;52.122;5.250;2023-11-18T04:12:48;70.7;;;47.9;;
62457;SDS011;48509;52.122;5.250;2023-11-18T04:16:00;82.7;;;50.4;;
62457;SDS011;48509;52.122;5.250;2023-11-18T04:17:36;57.3;;;40.71;;
62457;SDS011;48509;52.122;5.250;2023-11-18T04:19:12;63.8;;;42.7;;
62457;SDS011;48509;52.122;5.250;2023-11-18T04:22:24;64.5;;;43.5;;
62457;SDS011;48509;52.122;5.250;2023-11-18T04:24:00;64.8;;;43.9;;
62457;SDS011;48509;52.122;5.250;2023-11-18T04:25:37;68.41;;;46.0;;
62457;SDS011;48509;52.122;5.250;2023-11-18T04:27:13;67.91;;;45.4;;
62457;SDS011;48509;52.122;5.250;2023-11-18T04:30:25;64.2;;;44.7;;
62457;SDS011;48509;52.122;5.250;2023-11-18T04:32:01;51.3;;;36.6;;
62457;SDS011;48509;52.122;5.250;2023-11-18T04:33:37;68.7;;;45.9;;
62457;SDS011;48509;52.122;5.250;2023-11-18T04:36:49;53.5;;;37.81;;
62457;SDS011;48509;52.122;5.250;2023-11-18T04:38:26;64.8;;;43.7;;
62457;SDS011;48509;52.122;5.250;2023-11-18T04:40:03;57.1;;;41.5;;
62457;SDS011;48509;52.122;5.250;2023-11-18T04:43:18;64.5;;;43.7;;
62457;SDS011;48509;52.122;5.250;2023-11-18T04:44:54;44.0;;;32.8;;
62457;SDS011;48509;52.122;5.250;2023-11-18T04:46:30;52.6;;;39.5;;
62457;SDS011;48509;52.122;5.250;2023-11-18T04:48:06;66.8;;;42.4;;
62457;SDS011;48509;52.122;5.250;2023-11-18T04:51:18;59.0;;;42.2;;
62457;SDS011;48509;52.122;5.250;2023-11-18T04:52:54;66.41;;;44.7;;
62457;SDS011;48509;52.122;5.250;2023-11-18T04:54:31;63.7;;;44.6;;
62457;SDS011;48509;52.122;5.250;2023-11-18T04:57:43;50.6;;;36.1;;
62457;SDS011;48509;52.122;5.250;2023-11-18T04:59:19;55.5;;;41.7;;
62457;SDS011;48509;52.122;5.250;2023-11-18T05:00:55;54.2;;;39.31;;
62457;SDS011;48509;52.122;5.250;2023-11-18T05:04:07;58.0;;;42.6;;
62457;SDS011;48509;52.122;5.250;2023-11-18T05:05:43;57.1;;;40.5;;
62457;SDS011;48509;52.122;5.250;2023-11-18T05:07:20;69.41;;;47.1;;
62457;SDS011;48509;52.122;5.250;2023-11-18T05:10:32;58.3;;;42.8;;
62457;SDS011;48509;52.122;5.250;2023-11-18T05:12:08;49.8;;;37.6;;
62457;SDS011;48509;52.122;5.250;2023-11-18T05:13:44;66.1;;;45.1;;
62457;SDS011;48509;52.122;5.250;2023-11-18T05:15:20;66.41;;;45.2;;
62457;SDS011;48509;52.122;5.250;2023-11-18T05:18:33;52.3;;;35.6;;
62457;SDS011;48509;52.122;5.250;2023-11-18T05:20:09;65.0;;;43.6;;
62457;SDS011;48509;52.122;5.250;2023-11-18T05:21:46;68.3;;;45.4;;
62457;SDS011;48509;52.122;5.250;2023-11-18T05:24:58;54.7;;;39.21;;
62457;SDS011;48509;52.122;5.250;2023-11-18T05:26:34;60.1;;;44.4;;
62457;SDS011;48509;52.122;5.250;2023-11-18T05:28:10;51.7;;;36.31;;
62457;SDS011;48509;52.122;5.250;2023-11-18T05:31:22;58.7;;;42.7;;
62457;SDS011;48509;52.122;5.250;2023-11-18T05:32:58;66.2;;;44.5;;
62457;SDS011;48509;52.122;5.250;2023-11-18T05:34:35;59.1;;;43.2;;
62457;SDS011;48509;52.122;5.250;2023-11-18T05:37:47;50.7;;;35.5;;
62457;SDS011;48509;52.122;5.250;2023-11-18T05:39:23;58.8;;;42.5;;
62457;SDS011;48509;52.122;5.250;2023-11-18T05:40:59;63.4;;;44.0;;
62457;SDS011;48509;52.122;5.250;2023-11-18T05:42:35;63.4;;;44.0;;
62457;SDS011;48509;52.122;5.250;2023-11-18T05:45:48;65.8;;;44.3;;
62457;SDS011;48509;52.122;5.250;2023-11-18T05:47:24;57.3;;;39.6;;
62457;SDS011;48509;52.122;5.250;2023-11-18T05:49:01;65.1;;;42.5;;
62457;SDS011;48509;52.122;5.250;2023-11-18T05:52:14;54.7;;;36.4;;
62457;SDS011;48509;52.122;5.250;2023-11-18T05:53:50;57.1;;;37.9;;
62457;SDS011;48509;52.122;5.250;2023-11-18T05:55:27;59.2;;;42.2;;
62457;SDS011;48509;52.122;5.250;2023-11-18T05:58:39;59.1;;;41.6;;
62457;SDS011;48509;52.122;5.250;2023-11-18T06:00:16;62.6;;;42.3;;
62457;SDS011;48509;52.122;5.250;2023-11-18T06:01:52;61.8;;;41.2;;
62457;SDS011;48509;52.122;5.250;2023-11-18T06:03:28;70.11;;;45.9;;
62457;SDS011;48509;52.122;5.250;2023-11-18T06:06:42;62.9;;;41.1;;
62457;SDS011;48509;52.122;5.250;2023-11-18T06:08:18;69.7;;;44.0;;
62457;SDS011;48509;52.122;5.250;2023-11-18T06:09:54;69.2;;;43.2;;
62457;SDS011;48509;52.122;5.250;2023-11-18T06:13:06;63.4;;;41.2;;
62457;SDS011;48509;52.122;5.250;2023-11-18T06:14:42;63.7;;;43.1;;
62457;SDS011;48509;52.122;5.250;2023-11-18T06:16:20;66.8;;;41.5;;
62457;SDS011;48509;52.122;5.250;2023-11-18T06:19:33;50.2;;;35.71;;
62457;SDS011;48509;52.122;5.250;2023-11-18T06:21:09;60.6;;;39.9;;
62457;SDS011;48509;52.122;5.250;2023-11-18T06:22:47;57.5;;;37.5;;
62457;SDS011;48509;52.122;5.250;2023-11-18T06:24:23;63.8;;;41.3;;
62457;SDS011;48509;52.122;5.250;2023-11-18T06:27:35;64.5;;;40.21;;
62457;SDS011;48509;52.122;5.250;2023-11-18T06:29:11;53.9;;;37.31;;
62457;SDS011;48509;52.122;5.250;2023-11-18T06:30:47;53.1;;;34.81;;
62457;SDS011;48509;52.122;5.250;2023-11-18T06:34:00;70.8;;;44.6;;
62457;SDS011;48509;52.122;5.250;2023-11-18T06:35:37;58.6;;;36.6;;
62457;SDS011;48509;52.122;5.250;2023-11-18T06:37:13;62.2;;;39.21;;
62457;SDS011;48509;52.122;5.250;2023-11-18T06:40:26;62.1;;;38.71;;
62457;SDS011;48509;52.122;5.250;2023-11-18T06:42:02;55.8;;;35.4;;
62457;SDS011;48509;52.122;5.250;2023-11-18T06:43:39;54.5;;;34.6;;
62457;SDS011;48509;52.122;5.250;2023-11-18T06:45:15;53.5;;;35.6;;
62457;SDS011;48509;52.122;5.250;2023-11-18T06:48:28;53.1;;;35.4;;
62457;SDS011;48509;52.122;5.250;2023-11-18T06:50:04;55.6;;;35.4;;
62457;SDS011;48509;52.122;5.250;2023-11-18T06:51:41;51.2;;;32.6;;
62457;SDS011;48509;52.122;5.250;2023-11-18T06:54:54;53.2;;;36.5;;
62457;SDS011;48509;52.122;5.250;2023-11-18T06:56:30;58.4;;;37.31;;
62457;SDS011;48509;52.122;5.250;2023-11-18T06:58:06;47.8;;;33.3;;
62457;SDS011;48509;52.122;5.250;2023-11-18T07:01:19;47.2;;;31.1;;
62457;SDS011;48509;52.122;5.250;2023-11-18T07:02:56;54.3;;;32.4;;
62457;SDS011;48509;52.122;5.250;2023-11-18T07:04:32;52.6;;;31.1;;
62457;SDS011;48509;52.122;5.250;2023-11-18T07:07:44;44.5;;;30.6;;
62457;SDS011;48509;52.122;5.250;2023-11-18T07:09:20;49.6;;;31.0;;
62457;SDS011;48509;52.122;5.250;2023-11-18T07:10:56;45.4;;;31.6;;
62457;SDS011;48509;52.122;5.250;2023-11-18T07:12:32;48.9;;;32.9;;
62457;SDS011;48509;52.122;5.250;2023-11-18T07:15:46;42.8;;;29.4;;
62457;SDS011;48509;52.122;5.250;2023-11-18T07:17:22;46.9;;;31.6;;
62457;SDS011;48509;52.122;5.250;2023-11-18T07:18:58;55.8;;;35.1;;
62457;SDS011;48509;52.122;5.250;2023-11-18T07:22:10;46.5;;;32.6;;
62457;SDS011;48509;52.122;5.250;2023-11-18T07:23:46;42.6;;;30.0;;
62457;SDS011;48509;52.122;5.250;2023-11-18T07:25:22;43.9;;;28.1;;
62457;SDS011;48509;52.122;5.250;2023-11-18T07:28:34;56.1;;;34.31;;
62457;SDS011;48509;52.122;5.250;2023-11-18T07:30:11;54.3;;;32.8;;
62457;SDS011;48509;52.122;5.250;2023-11-18T07:31:47;49.5;;;33.1;;
62457;SDS011;48509;52.122;5.250;2023-11-18T07:33:23;45.3;;;31.0;;
62457;SDS011;48509;52.122;5.250;2023-11-18T07:36:35;44.6;;;30.0;;
62457;SDS011;48509;52.122;5.250;2023-11-18T07:38:11;49.8;;;31.2;;
62457;SDS011;48509;52.122;5.250;2023-11-18T07:39:48;46.4;;;29.6;;
62457;SDS011;48509;52.122;5.250;2023-11-18T07:43:00;38.81;;;26.8;;
62457;SDS011;48509;52.122;5.250;2023-11-18T07:44:36;39.0;;;28.4;;
62457;SDS011;48509;52.122;5.250;2023-11-18T07:46:12;48.1;;;30.0;;
62457;SDS011;48509;52.122;5.250;2023-11-18T07:49:25;38.9;;;26.7;;
62457;SDS011;48509;52.122;5.250;2023-11-18T07:51:01;53.4;;;31.5;;
62457;SDS011;48509;52.122;5.250;2023-11-18T07:52:38;41.9;;;28.5;;
62457;SDS011;48509;52.122;5.250;2023-11-18T07:55:50;43.1;;;28.3;;
62457;SDS011;48509;52.122;5.250;2023-11-18T07:57:26;39.31;;;27.2;;
62457;SDS011;48509;52.122;5.250;2023-11-18T07:59:02;45.6;;;29.7;;
62457;SDS011;48509;52.122;5.250;2023-11-18T08:00:38;45.6;;;29.9;;
62457;SDS011;48509;52.122;5.250;2023-11-18T08:03:52;46.1;;;30.5;;
62457;SDS011;48509;52.122;5.250;2023-11-18T08:05:28;46.5;;;30.5;;
62457;SDS011;48509;52.122;5.250;2023-11-18T08:07:04;41.5;;;27.1;;
62457;SDS011;48509;52.122;5.250;2023-11-18T08:10:16;45.8;;;27.3;;
62457;SDS011;48509;52.122;5.250;2023-11-18T08:11:52;41.1;;;26.4;;
62457;SDS011;48509;52.122;5.250;2023-11-18T08:13:28;39.9;;;25.3;;
62457;SDS011;48509;52.122;5.250;2023-11-18T08:16:41;41.9;;;26.9;;
62457;SDS011;48509;52.122;5.250;2023-11-18T08:18:18;37.21;;;24.5;;
62457;SDS011;48509;52.122;5.250;2023-11-18T08:19:53;35.81;;;22.8;;
62457;SDS011;48509;52.122;5.250;2023-11-18T08:21:30;36.1;;;25.0;;
62457;SDS011;48509;52.122;5.250;2023-11-18T08:24:42;35.71;;;23.3;;
62457;SDS011;48509;52.122;5.250;2023-11-18T08:26:18;35.31;;;23.4;;
62457;SDS011;48509;52.122;5.250;2023-11-18T08:27:54;35.21;;;23.7;;
62457;SDS011;48509;52.122;5.250;2023-11-18T08:31:08;38.5;;;26.3;;
62457;SDS011;48509;52.122;5.250;2023-11-18T08:32:45;36.9;;;23.5;;
62457;SDS011;48509;52.122;5.250;2023-11-18T08:34:21;35.71;;;24.4;;
62457;SDS011;48509;52.122;5.250;2023-11-18T08:37:33;35.21;;;22.8;;
62457;SDS011;48509;52.122;5.250;2023-11-18T08:39:10;34.4;;;22.6;;
62457;SDS011;48509;52.122;5.250;2023-11-18T08:40:47;32.21;;;21.6;;
62457;SDS011;48509;52.122;5.250;2023-11-18T08:43:59;40.4;;;25.0;;
62457;SDS011;48509;52.122;5.250;2023-11-18T08:45:35;33.1;;;23.2;;
62457;SDS011;48509;52.122;5.250;2023-11-18T08:47:11;32.3;;;21.2;;
62457;SDS011;48509;52.122;5.250;2023-11-18T08:48:47;32.3;;;21.1;;
62457;SDS011;48509;52.122;5.250;2023-11-18T08:52:01;33.4;;;21.6;;
62457;SDS011;48509;52.122;5.250;2023-11-18T08:53:38;29.9;;;21.8;;
62457;SDS011;48509;52.122;5.250;2023-11-18T08:55:15;24.7;;;19.11;;
62457;SDS011;48509;52.122;5.250;2023-11-18T08:58:27;39.31;;;22.0;;
62457;SDS011;48509;52.122;5.250;2023-11-18T09:00:04;28.7;;;19.3;;
62457;SDS011;48509;52.122;5.250;2023-11-18T09:01:41;31.4;;;21.6;;
62457;SDS011;48509;52.122;5.250;2023-11-18T09:04:56;30.4;;;20.2;;
62457;SDS011;48509;52.122;5.250;2023-11-18T09:06:32;36.31;;;20.9;;
62457;SDS011;48509;52.122;5.250;2023-11-18T09:08:08;25.1;;;17.91;;
62457;SDS011;48509;52.122;5.250;2023-11-18T09:09:44;28.4;;;18.91;;
62457;SDS011;48509;52.122;5.250;2023-11-18T09:12:58;21.5;;;16.7;;
62457;SDS011;48509;52.122;5.250;2023-11-18T09:14:34;28.4;;;20.7;;
62457;SDS011;48509;52.122;5.250;2023-11-18T09:21:00;27.3;;;19.2;;
62457;SDS011;48509;52.122;5.250;2023-11-18T09:22:36;25.2;;;18.41;;
62457;SDS011;48509;52.122;5.250;2023-11-18T09:25:48;22.2;;;14.4;;
62457;SDS011;48509;52.122;5.250;2023-11-18T09:27:25;26.9;;;18.11;;
62457;SDS011;48509;52.122;5.250;2023-11-18T09:29:01;24.7;;;15.5;;
62457;SDS011;48509;52.122;5.250;2023-11-18T09:30:37;25.3;;;15.2;;
62457;SDS011;48509;52.122;5.250;2023-11-18T09:33:49;22.2;;;16.5;;
62457;SDS011;48509;52.122;5.250;2023-11-18T09:35:26;24.4;;;14.4;;
62457;SDS011;48509;52.122;5.250;2023-11-18T09:37:02;23.6;;;15.3;;
62457;SDS011;48509;52.122;5.250;2023-11-18T09:40:16;21.6;;;13.6;;
62457;SDS011;48509;52.122;5.250;2023-11-18T09:41:52;24.4;;;15.8;;
62457;SDS011;48509;52.122;5.250;2023-11-18T09:43:28;21.3;;;14.8;;
62457;SDS011;48509;52.122;5.250;2023-11-18T09:46:43;19.3;;;12.9;;
62457;SDS011;48509;52.122;5.250;2023-11-18T09:48:25;21.0;;;15.0;;
62457;SDS011;48509;52.122;5.250;2023-11-18T09:50:02;24.0;;;14.2;;
62457;SDS011;48509;52.122;5.250;2023-11-18T09:51:44;24.7;;;14.4;;
62457;SDS011;48509;52.122;5.250;2023-11-18T09:54:59;27.1;;;17.3;;
62457;SDS011;48509;52.122;5.250;2023-11-18T09:56:40;24.6;;;16.0;;
62457;SDS011;48509;52.122;5.250;2023-11-18T09:58:25;26.1;;;15.9;;
62457;SDS011;48509;52.122;5.250;2023-11-18T10:00:15;26.1;;;15.9;;
62457;SDS011;48509;52.122;5.250;2023-11-18T10:03:33;25.8;;;15.0;;
62457;SDS011;48509;52.122;5.250;2023-11-18T10:05:09;23.8;;;15.4;;
62457;SDS011;48509;52.122;5.250;2023-11-18T10:06:46;24.5;;;15.4;;
62457;SDS011;48509;52.122;5.250;2023-11-18T10:08:25;26.8;;;16.9;;
62457;SDS011;48509;52.122;5.250;2023-11-18T10:11:37;33.4;;;16.11;;
62457;SDS011;48509;52.122;5.250;2023-11-18T10:13:13;27.2;;;14.7;;
62457;SDS011;48509;52.122;5.250;2023-11-18T10:14:49;31.6;;;17.7;;
62457;SDS011;48509;52.122;5.250;2023-11-18T10:18:03;20.2;;;13.0;;
62457;SDS011;48509;52.122;5.250;2023-11-18T10:19:51;18.0;;;13.2;;
62457;SDS011;48509;52.122;5.250;2023-11-18T10:21:34;19.2;;;13.4;;
62457;SDS011;48509;52.122;5.250;2023-11-18T10:23:11;19.3;;;13.3;;
62457;SDS011;48509;52.122;5.250;2023-11-18T10:26:24;23.2;;;14.5;;
62457;SDS011;48509;52.122;5.250;2023-11-18T10:28:01;17.7;;;11.3;;
62457;SDS011;48509;52.122;5.250;2023-11-18T10:29:37;21.3;;;13.8;;
62457;SDS011;48509;52.122;5.250;2023-11-18T10:31:13;16.4;;;12.2;;
62457;SDS011;48509;52.122;5.250;2023-11-18T10:34:32;21.9;;;14.1;;
62457;SDS011;48509;52.122;5.250;2023-11-18T10:36:16;19.2;;;10.6;;
62457;SDS011;48509;52.122;5.250;2023-11-18T10:37:54;21.9;;;13.6;;
62457;SDS011;48509;52.122;5.250;2023-11-18T10:41:08;18.5;;;12.0;;
62457;SDS011;48509;52.122;5.250;2023-11-18T10:42:44;18.7;;;12.4;;
62457;SDS011;48509;52.122;5.250;2023-11-18T10:44:21;15.1;;;10.6;;
62457;SDS011;48509;52.122;5.250;2023-11-18T10:46:04;22.2;;;13.1;;
62457;SDS011;48509;52.122;5.250;2023-11-18T10:49:20;22.2;;;13.1;;
62457;SDS011;48509;52.122;5.250;2023-11-18T10:50:56;14.3;;;10.3;;
62457;SDS011;48509;52.122;5.250;2023-11-18T10:52:32;21.3;;;11.5;;
62457;SDS011;48509;52.122;5.250;2023-11-18T10:55:44;19.11;;;10.8;;
62457;SDS011;48509;52.122;5.250;2023-11-18T10:57:21;16.8;;;10.8;;
62457;SDS011;48509;52.122;5.250;2023-11-18T10:58:58;21.2;;;11.4;;
62457;SDS011;48509;52.122;5.250;2023-11-18T11:00:45;21.2;;;11.4;;
62457;SDS011;48509;52.122;5.250;2023-11-18T11:03:59;16.5;;;11.3;;
62457;SDS011;48509;52.122;5.250;2023-11-18T11:05:36;17.91;;;10.4;;
62457;SDS011;48509;52.122;5.250;2023-11-18T11:07:12;16.9;;;9.31;;
62457;SDS011;48509;52.122;5.250;2023-11-18T11:08:51;19.5;;;10.5;;
62457;SDS011;48509;52.122;5.250;2023-11-18T11:12:08;20.11;;;12.1;;
62457;SDS011;48509;52.122;5.250;2023-11-18T11:13:47;20.41;;;12.1;;
62457;SDS011;48509;52.122;5.250;2023-11-18T11:15:29;17.5;;;10.8;;
62457;SDS011;48509;52.122;5.250;2023-11-18T11:18:44;18.7;;;10.1;;
62457;SDS011;48509;52.122;5.250;2023-11-18T11:20:24;16.4;;;10.8;;
62457;SDS011;48509;52.122;5.250;2023-11-18T11:22:04;20.11;;;10.8;;
62457;SDS011;48509;52.122;5.250;2023-11-18T11:23:42;19.11;;;11.2;;
62457;SDS011;48509;52.122;5.250;2023-11-18T11:27:13;17.3;;;9.6;;
62457;SDS011;48509;52.122;5.250;2023-11-18T11:29:00;22.5;;;13.2;;
62457;SDS011;48509;52.122;5.250;2023-11-18T11:30:44;20.3;;;11.8;;
62457;SDS011;48509;52.122;5.250;2023-11-18T11:32:23;18.5;;;11.4;;
62457;SDS011;48509;52.122;5.250;2023-11-18T11:34:04;16.3;;;9.31;;
62457;SDS011;48509;52.122;5.250;2023-11-18T11:37:25;19.0;;;11.0;;
62457;SDS011;48509;52.122;5.250;2023-11-18T11:39:01;15.7;;;8.9;;
62457;SDS011;48509;52.122;5.250;2023-11-18T11:40:37;17.41;;;10.9;;
62457;SDS011;48509;52.122;5.250;2023-11-18T11:43:54;20.8;;;11.5;;
62457;SDS011;48509;52.122;5.250;2023-11-18T11:45:31;19.61;;;10.5;;
62457;SDS011;48509;52.122;5.250;2023-11-18T11:47:07;21.7;;;11.9;;
62457;SDS011;48509;52.122;5.250;2023-11-18T11:48:44;20.7;;;11.2;;
62457;SDS011;48509;52.122;5.250;2023-11-18T11:52:09;14.4;;;7.3;;
62457;SDS011;48509;52.122;5.250;2023-11-18T11:53:52;15.5;;;8.5;;
62457;SDS011;48509;52.122;5.250;2023-11-18T11:55:35;16.0;;;9.4;;
62457;SDS011;48509;52.122;5.250;2023-11-18T11:57:17;12.8;;;7.8;;
62457;SDS011;48509;52.122;5.250;2023-11-18T12:00:33;12.3;;;9.21;;
62457;SDS011;48509;52.122;5.250;2023-11-18T12:02:09;11.3;;;7.9;;
62457;SDS011;48509;52.122;5.250;2023-11-18T12:03:46;10.1;;;6.5;;
62457;SDS011;48509;52.122;5.250;2023-11-18T12:05:23;16.11;;;9.4;;
62457;SDS011;48509;52.122;5.250;2023-11-18T12:08:36;8.71;;;6.5;;
62457;SDS011;48509;52.122;5.250;2023-11-18T12:10:12;16.8;;;8.31;;
62457;SDS011;48509;52.122;5.250;2023-11-18T12:11:48;14.2;;;8.0;;
62457;SDS011;48509;52.122;5.250;2023-11-18T12:15:02;14.9;;;8.71;;
62457;SDS011;48509;52.122;5.250;2023-11-18T12:16:57;13.6;;;7.2;;
62457;SDS011;48509;52.122;5.250;2023-11-18T12:18:36;17.3;;;9.1;;
62457;SDS011;48509;52.122;5.250;2023-11-18T12:20:30;14.2;;;7.4;;
62457;SDS011;48509;52.122;5.250;2023-11-18T12:22:14;15.4;;;7.9;;
62457;SDS011;48509;52.122;5.250;2023-11-18T12:25:51;10.7;;;7.2;;
62457;SDS011;48509;52.122;5.250;2023-11-18T12:27:48;11.8;;;7.2;;
62457;SDS011;48509;52.122;5.250;2023-11-18T12:29:31;9.71;;;6.2;;
62457;SDS011;48509;52.122;5.250;2023-11-18T12:31:08;14.6;;;7.6;;
62457;SDS011;48509;52.122;5.250;2023-11-18T12:33:04;13.6;;;6.5;;
62457;SDS011;48509;52.122;5.250;2023-11-18T12:34:52;10.8;;;6.1;;
62457;SDS011;48509;52.122;5.250;2023-11-18T12:39:21;13.6;;;6.9;;
62457;SDS011;48509;52.122;5.250;2023-11-18T12:42:05;12.5;;;6.2;;
62457;SDS011;48509;52.122;5.250;2023-11-18T12:43:45;10.5;;;7.5;;